Rouyn Noranda Airport
CYUY : rendu visible

Aérodrome :











RETROUVEZ-NOUS SUR...

 
LOGIN :

S'inscrire | Disclaimer

   EN    FR    IT 

 









Légende :    VFR   VFR Marginal   IFR   IFR Intensif   IFR Très Intensif
Visi : 
Plafond : 
>= 8 km
>= 3000ft
5 à 8 km
1000 à 3000 ft
1500m à 5 km
500 à 1000 ft
800 à 1500m
200 à 500 ft
< 800m
< 200 ft
Symboles :   Orages  Brouillard  Fortes neiges  Fortes précipitations  Vent > 20 kt






- Altitude de l'aérodrome : 988 ft
- Code IATA : YUY


CYUY - Rouyn Noranda

DERNIER METAR :
  • 211600Z 18010G15KT 15SM BKN006 BKN008 OVC030 02/00 A2990 WS RWY6 RMK SF5SF2SC1 SLP143

METARs EXPIRÉS :
  • 211500Z 19009KT 15SM OVC005 01/00 A2994 RMK SF8 SLP154
  • 211400Z 18009KT 15SM BKN005 OVC030 01/00 A2997 RMK SF7SC1 SLP165
  • 211315Z 18008KT 15SM BKN006 OVC030 01/00 A2998 RMK SF5SC3 SLP170

TAF AMD TAF CYUY
Valide du 21 à 14h jusqu'au 22 à 00h UTC


211423Z 2114/2124 18008KT P6SM SCT005 OVC030
TEMPO 2114/2117 4SM -SN BR BKN005 OVC030
FM211700 18010G20KT 6SM -SNRA OVC015
TEMPO 2117/2119 2SM -SNRA BKN008 OVC015
FM211900 18010G20KT 2SM -SNRA BR BKN008 OVC015
PROB40 2121/2124 1SM -SN OVC005 RMK NXT FCST BY 211800Z



MET'MAP, la Météo Aéronautique d'un coup d'oeil ! - Copyright ORBIFLY Décembre 2007 - Disclaimer

ORBIFLY MET'MAP TEAM :

Programmation & Développement : Alexandra Zaïnal
Conception & Développement : Baudouin d'Aumeries
Co-Programmation & Développement : Marc-Olivier Méhu
Soutien technique & logistique : Manuel Goepfert

Contact : metmap@orbifly.com




SOURCES & CREDITS :

   NOAA       Earth
Advisory